Time;durP1;ratioP1;P1;durP2;ratioP2;P2;SDS_P1;SDS_P2;PMS_P1;PMS_P2;Temp;Humidity;BMP_temperature;BMP_pressure;BME280_temperature;BME280_humidity;BME280_pressure;Samples;Min_cycle;Max_cycle;Signal;HPM_P1;HPM_P2
2021/01/25 00:00:15;;;;;;;7.90;4.28;;;;;;;;;;6336155;22;20006;-78
2021/01/25 00:02:41;;;;;;;9.93;4.45;;;;;;;;;;6336095;22;20063;-79
2021/01/25 00:05:08;;;;;;;10.20;4.47;;;;;;;;;;6335560;22;20022;-78
2021/01/25 00:07:35;;;;;;;8.38;4.80;;;;;;;;;;6364205;22;20418;-78
2021/01/25 00:10:01;;;;;;;9.43;5.43;;;;;;;;;;6363656;22;19998;-79
2021/01/25 00:12:27;;;;;;;9.93;5.20;;;;;;;;;;6363731;22;20436;-78
2021/01/25 00:14:54;;;;;;;9.05;5.05;;;;;;;;;;6335667;22;20006;-79
2021/01/25 00:17:21;;;;;;;9.65;5.75;;;;;;;;;;6364057;22;20055;-78
2021/01/25 00:19:47;;;;;;;10.18;5.93;;;;;;;;;;6335863;22;20089;-79
2021/01/25 00:22:13;;;;;;;13.82;6.35;;;;;;;;;;6364203;22;19998;-78
2021/01/25 00:24:39;;;;;;;11.23;6.35;;;;;;;;;;6335083;22;20038;-79
2021/01/25 00:27:05;;;;;;;11.13;6.18;;;;;;;;;;6335531;22;20477;-78
2021/01/25 00:29:32;;;;;;;11.32;6.57;;;;;;;;;;6335128;22;20444;-78
2021/01/25 00:31:58;;;;;;;10.85;6.68;;;;;;;;;;6363645;22;20005;-79
2021/01/25 00:34:27;;;;;;;11.38;6.43;;;;;;;;;;6364545;22;20029;-79
2021/01/25 00:36:53;;;;;;;11.25;6.55;;;;;;;;;;6337493;22;20025;-78
2021/01/25 00:39:19;;;;;;;14.48;7.10;;;;;;;;;;6337369;22;20085;-78
2021/01/25 00:41:45;;;;;;;13.70;7.28;;;;;;;;;;6365556;22;20034;-79
2021/01/25 00:44:11;;;;;;;12.65;7.32;;;;;;;;;;6366555;22;20002;-78
2021/01/25 00:46:37;;;;;;;12.63;7.28;;;;;;;;;;6338133;22;20002;-79
2021/01/25 00:49:03;;;;;;;12.10;7.00;;;;;;;;;;6338346;22;20002;-79
2021/01/25 00:51:29;;;;;;;12.50;6.45;;;;;;;;;;6338766;22;20010;-79
2021/01/25 00:53:55;;;;;;;11.77;6.43;;;;;;;;;;6366945;22;20504;-78
2021/01/25 00:56:22;;;;;;;14.98;6.72;;;;;;;;;;6338043;22;20006;-79
2021/01/25 00:58:48;;;;;;;9.73;5.88;;;;;;;;;;6336825;22;19995;-79
2021/01/25 01:01:14;;;;;;;10.55;5.75;;;;;;;;;;6365405;22;20002;-78
2021/01/25 01:03:40;;;;;;;12.82;6.32;;;;;;;;;;6338153;22;20006;-79
2021/01/25 01:06:06;;;;;;;11.88;5.78;;;;;;;;;;6365465;22;20010;-78
2021/01/25 01:08:32;;;;;;;10.80;5.93;;;;;;;;;;6337837;22;20028;-78
2021/01/25 01:10:58;;;;;;;10.13;6.18;;;;;;;;;;6337340;22;20427;-78
2021/01/25 01:13:24;;;;;;;9.95;5.97;;;;;;;;;;6366028;22;19998;-79
2021/01/25 01:15:51;;;;;;;10.60;6.13;;;;;;;;;;6365389;22;20029;-79
2021/01/25 01:18:17;;;;;;;10.40;6.05;;;;;;;;;;6337664;22;20014;-80
2021/01/25 01:20:43;;;;;;;10.32;5.38;;;;;;;;;;6338048;22;20343;-79
2021/01/25 01:23:09;;;;;;;10.43;5.63;;;;;;;;;;6337683;22;20006;-78
2021/01/25 01:25:35;;;;;;;9.55;5.78;;;;;;;;;;6365423;22;20008;-78
2021/01/25 01:28:01;;;;;;;10.27;6.00;;;;;;;;;;6337404;22;20032;-78
2021/01/25 01:30:27;;;;;;;12.85;7.47;;;;;;;;;;6337566;22;20006;-79
2021/01/25 01:32:53;;;;;;;11.52;6.93;;;;;;;;;;6337296;22;19994;-79
2021/01/25 01:35:19;;;;;;;11.90;7.28;;;;;;;;;;6365896;22;20120;-79
2021/01/25 01:37:45;;;;;;;15.50;7.10;;;;;;;;;;6365991;22;20491;-78
2021/01/25 01:40:12;;;;;;;13.43;6.28;;;;;;;;;;6337268;22;20009;-79
2021/01/25 01:42:38;;;;;;;10.23;6.40;;;;;;;;;;6365741;22;20084;-79
2021/01/25 01:45:05;;;;;;;12.38;6.35;;;;;;;;;;6337292;22;20309;-79
2021/01/25 01:47:32;;;;;;;12.63;6.80;;;;;;;;;;6336477;22;20487;-78
2021/01/25 01:49:59;;;;;;;10.63;6.50;;;;;;;;;;6337581;22;20010;-79
2021/01/25 01:52:25;;;;;;;9.00;5.63;;;;;;;;;;6365428;22;19998;-80
2021/01/25 01:54:51;;;;;;;10.45;6.22;;;;;;;;;;6364692;22;20033;-78
2021/01/25 01:57:17;;;;;;;11.65;6.50;;;;;;;;;;6365467;22;20439;-79
2021/01/25 01:59:43;;;;;;;9.88;4.97;;;;;;;;;;6365101;22;20006;-80
2021/01/25 02:02:09;;;;;;;7.90;4.32;;;;;;;;;;6337795;22;20017;-79
2021/01/25 02:04:35;;;;;;;9.48;4.70;;;;;;;;;;6364663;22;20002;-80
2021/01/25 02:07:06;;;;;;;6.88;4.00;;;;;;;;;;6338524;22;20027;-79
2021/01/25 02:09:33;;;;;;;10.90;5.03;;;;;;;;;;6337438;22;20029;-79
2021/01/25 02:12:00;;;;;;;9.88;5.35;;;;;;;;;;6337990;22;20045;-79
2021/01/25 02:14:26;;;;;;;9.37;5.03;;;;;;;;;;6336869;22;19999;-80
2021/01/25 02:16:52;;;;;;;8.23;4.75;;;;;;;;;;6365113;22;20006;-79
2021/01/25 02:19:22;;;;;;;8.45;4.40;;;;;;;;;;6366169;22;20454;-79
2021/01/25 02:21:58;;;;;;;6.38;4.13;;;;;;;;;;6367825;22;20019;-79
2021/01/25 02:24:33;;;;;;;8.70;4.47;;;;;;;;;;6366977;22;20021;-79
2021/01/25 02:27:02;;;;;;;11.95;5.65;;;;;;;;;;6367316;22;20371;-79
2021/01/25 02:29:28;;;;;;;9.98;5.30;;;;;;;;;;6367664;22;19995;-78
2021/01/25 02:31:54;;;;;;;9.95;5.45;;;;;;;;;;6338943;22;20005;-79
2021/01/25 02:34:20;;;;;;;8.65;5.00;;;;;;;;;;6339296;22;20258;-80
2021/01/25 02:36:46;;;;;;;8.45;4.88;;;;;;;;;;6367069;22;20002;-79
2021/01/25 02:39:13;;;;;;;8.60;4.45;;;;;;;;;;6339330;22;20511;-78
2021/01/25 02:41:40;;;;;;;7.88;4.50;;;;;;;;;;6339167;22;20025;-78
2021/01/25 02:44:08;;;;;;;8.05;5.00;;;;;;;;;;6340177;22;20488;-80
2021/01/25 02:46:34;;;;;;;8.73;5.30;;;;;;;;;;6338374;22;20007;-79
2021/01/25 02:49:00;;;;;;;9.88;6.07;;;;;;;;;;6367022;22;20089;-79
2021/01/25 02:51:26;;;;;;;10.43;6.18;;;;;;;;;;6366532;22;20026;-80
2021/01/25 02:53:52;;;;;;;10.95;5.80;;;;;;;;;;6366852;22;19999;-78
2021/01/25 02:56:19;;;;;;;12.25;6.50;;;;;;;;;;6337904;22;20503;-79
2021/01/25 02:58:46;;;;;;;12.00;6.60;;;;;;;;;;6332166;22;20006;-79
2021/01/25 03:01:12;;;;;;;;;;;;;;;;;;6367119;22;20020;-80
2021/01/25 03:03:39;;;;;;;9.57;6.05;;;;;;;;;;6340611;22;19898;-77
2021/01/25 03:06:05;;;;;;;9.23;5.82;;;;;;;;;;6339523;22;20009;-79
2021/01/25 03:08:31;;;;;;;10.43;5.85;;;;;;;;;;6340660;22;20006;-81
2021/01/25 03:10:57;;;;;;;10.82;6.25;;;;;;;;;;6340931;22;19998;-80
2021/01/25 03:13:27;;;;;;;11.65;6.68;;;;;;;;;;6340306;22;20008;-79
2021/01/25 03:15:57;;;;;;;12.05;6.63;;;;;;;;;;6340430;22;20196;-80
2021/01/25 03:18:26;;;;;;;12.77;6.85;;;;;;;;;;6340833;22;20081;-80
2021/01/25 03:20:55;;;;;;;13.25;7.15;;;;;;;;;;6339820;22;20315;-78
2021/01/25 03:23:21;;;;;;;12.20;7.35;;;;;;;;;;6340258;22;20611;-80
2021/01/25 03:25:47;;;;;;;10.52;7.13;;;;;;;;;;6339664;22;20010;-79
2021/01/25 03:28:14;;;;;;;12.57;8.02;;;;;;;;;;6339866;22;20025;-80
2021/01/25 03:30:40;;;;;;;12.80;7.88;;;;;;;;;;6340028;22;20089;-79
2021/01/25 03:33:06;;;;;;;12.63;7.80;;;;;;;;;;6340235;22;20006;-80
2021/01/25 03:35:33;;;;;;;12.82;7.85;;;;;;;;;;6339914;22;20093;-80
2021/01/25 03:37:59;;;;;;;11.25;7.13;;;;;;;;;;6368177;22;19994;-80
2021/01/25 03:40:25;;;;;;;10.90;6.03;;;;;;;;;;6368248;22;20009;-80
2021/01/25 03:42:51;;;;;;;9.38;5.80;;;;;;;;;;6367861;22;20077;-80
2021/01/25 03:45:17;;;;;;;9.45;5.05;;;;;;;;;;6339839;22;20007;-80
2021/01/25 03:47:43;;;;;;;7.65;5.20;;;;;;;;;;6368287;22;20446;-80
2021/01/25 03:50:09;;;;;;;9.32;5.10;;;;;;;;;;6339786;22;20009;-80
2021/01/25 03:52:35;;;;;;;7.80;4.40;;;;;;;;;;6340297;22;19995;-80
2021/01/25 03:55:01;;;;;;;7.80;4.72;;;;;;;;;;6367985;22;20086;-80
2021/01/25 03:57:27;;;;;;;10.60;6.38;;;;;;;;;;6339625;22;20002;-80
2021/01/25 03:59:53;;;;;;;12.52;7.50;;;;;;;;;;6367861;22;20153;-80
2021/01/25 04:02:19;;;;;;;12.85;7.80;;;;;;;;;;6366835;22;20005;-80
2021/01/25 04:04:45;;;;;;;14.68;8.07;;;;;;;;;;6365802;22;20002;-80
2021/01/25 04:07:11;;;;;;;11.02;7.60;;;;;;;;;;6338295;22;20363;-80
2021/01/25 04:09:38;;;;;;;10.82;6.53;;;;;;;;;;6337919;22;19999;-82
2021/01/25 04:12:04;;;;;;;11.35;6.80;;;;;;;;;;6337191;22;20003;-80
2021/01/25 04:14:30;;;;;;;13.05;7.65;;;;;;;;;;6364927;22;20069;-80
2021/01/25 04:16:56;;;;;;;14.93;8.57;;;;;;;;;;6338043;22;20029;-82
2021/01/25 04:19:23;;;;;;;14.32;8.48;;;;;;;;;;6337699;22;20096;-80
2021/01/25 04:21:48;;;;;;;12.13;7.00;;;;;;;;;;6337708;22;20089;-82
2021/01/25 04:24:14;;;;;;;9.60;6.57;;;;;;;;;;6337751;22;20110;-81
2021/01/25 04:26:41;;;;;;;12.90;8.27;;;;;;;;;;6337272;22;20017;-80
2021/01/25 04:29:14;;;;;;;11.27;7.60;;;;;;;;;;6337480;22;20364;-80
2021/01/25 04:31:40;;;;;;;13.25;8.10;;;;;;;;;;6365313;22;20001;-81
2021/01/25 04:34:06;;;;;;;12.25;7.55;;;;;;;;;;6365631;22;20443;-79
2021/01/25 04:36:33;;;;;;;10.23;7.05;;;;;;;;;;6336692;22;20034;-79
2021/01/25 04:38:59;;;;;;;11.80;7.63;;;;;;;;;;6337275;22;20093;-80
2021/01/25 04:41:25;;;;;;;15.45;8.07;;;;;;;;;;6337097;22;20315;-79
2021/01/25 04:43:53;;;;;;;11.13;6.90;;;;;;;;;;6365312;22;20038;-79
2021/01/25 04:46:19;;;;;;;11.82;7.20;;;;;;;;;;6364934;22;20089;-81
2021/01/25 04:48:46;;;;;;;11.40;6.97;;;;;;;;;;6337786;22;20026;-79
2021/01/25 04:51:13;;;;;;;12.10;7.03;;;;;;;;;;6337371;22;20083;-79
2021/01/25 04:53:40;;;;;;;13.23;7.18;;;;;;;;;;6365511;22;20002;-79
2021/01/25 04:56:07;;;;;;;12.02;7.13;;;;;;;;;;6337361;22;20045;-79
2021/01/25 04:58:33;;;;;;;11.10;7.00;;;;;;;;;;6365329;22;19998;-79
2021/01/25 05:01:00;;;;;;;9.68;6.60;;;;;;;;;;6337164;22;20438;-79
2021/01/25 05:03:26;;;;;;;10.32;7.07;;;;;;;;;;6337493;22;20002;-80
2021/01/25 05:05:52;;;;;;;10.75;6.65;;;;;;;;;;6364553;22;20007;-78
2021/01/25 05:08:18;;;;;;;11.63;7.50;;;;;;;;;;6337316;22;20020;-80
2021/01/25 05:10:44;;;;;;;13.07;7.25;;;;;;;;;;6337612;22;20002;-80
2021/01/25 05:13:20;;;;;;;12.18;6.72;;;;;;;;;;6337626;22;20009;-78
2021/01/25 05:15:47;;;;;;;13.73;6.90;;;;;;;;;;6337240;22;20009;-79
2021/01/25 05:18:13;;;;;;;10.57;6.57;;;;;;;;;;6365421;22;20084;-78
2021/01/25 05:20:39;;;;;;;10.50;7.20;;;;;;;;;;6365300;22;20002;-80
2021/01/25 05:23:15;;;;;;;13.00;6.70;;;;;;;;;;6365723;22;20077;-79
2021/01/25 05:25:41;;;;;;;9.90;6.43;;;;;;;;;;6336889;22;20060;-79
2021/01/25 05:28:15;;;;;;;9.48;6.18;;;;;;;;;;6337722;22;20002;-80
2021/01/25 05:30:41;;;;;;;10.32;6.50;;;;;;;;;;6365666;22;19994;-81
2021/01/25 05:33:07;;;;;;;9.00;5.85;;;;;;;;;;6337738;22;19998;-79
2021/01/25 05:35:33;;;;;;;10.38;6.30;;;;;;;;;;6336855;22;20081;-78
2021/01/25 05:38:07;;;;;;;11.57;6.38;;;;;;;;;;6337371;22;20010;-80
2021/01/25 05:40:34;;;;;;;11.68;6.70;;;;;;;;;;6337411;22;20006;-79
2021/01/25 05:43:00;;;;;;;10.63;6.32;;;;;;;;;;6337213;22;20283;-80
2021/01/25 05:45:28;;;;;;;12.35;7.00;;;;;;;;;;6365153;22;20028;-79
2021/01/25 05:47:56;;;;;;;9.90;5.90;;;;;;;;;;6338040;22;20025;-79
2021/01/25 05:50:21;;;;;;;;;;;;;;;;;;6365373;22;20010;-80
2021/01/25 05:52:47;;;;;;;12.00;6.65;;;;;;;;;;6337684;22;19898;-80
2021/01/25 05:55:13;;;;;;;10.68;6.30;;;;;;;;;;6338413;22;20030;-80
2021/01/25 05:57:39;;;;;;;10.75;6.78;;;;;;;;;;6339446;22;20003;-78
2021/01/25 06:00:07;;;;;;;12.27;6.80;;;;;;;;;;6339133;22;20435;-80
2021/01/25 06:02:36;;;;;;;15.20;7.15;;;;;;;;;;6339153;22;20013;-78
2021/01/25 06:05:02;;;;;;;10.77;6.90;;;;;;;;;;6339030;22;20055;-79
2021/01/25 06:07:28;;;;;;;9.88;6.82;;;;;;;;;;6367503;22;19999;-79
2021/01/25 06:09:55;;;;;;;11.48;7.57;;;;;;;;;;6367444;22;19994;-79
2021/01/25 06:12:26;;;;;;;10.20;6.70;;;;;;;;;;6339479;22;20055;-80
2021/01/25 06:14:58;;;;;;;18.45;8.70;;;;;;;;;;6339205;22;20052;-80
2021/01/25 06:17:25;;;;;;;17.60;9.20;;;;;;;;;;6339304;22;20349;-79
2021/01/25 06:19:51;;;;;;;22.80;10.90;;;;;;;;;;6366974;22;20094;-79
2021/01/25 06:22:17;;;;;;;17.63;10.65;;;;;;;;;;6339380;22;20026;-79
2021/01/25 06:24:43;;;;;;;18.27;10.65;;;;;;;;;;6338693;22;20127;-78
2021/01/25 06:27:14;;;;;;;19.15;10.63;;;;;;;;;;6339354;22;20040;-79
2021/01/25 06:29:40;;;;;;;18.65;9.77;;;;;;;;;;6339204;22;19998;-80
2021/01/25 06:32:06;;;;;;;14.18;9.57;;;;;;;;;;6339229;22;20022;-79
2021/01/25 06:34:36;;;;;;;19.08;9.77;;;;;;;;;;6366254;22;20003;-80
2021/01/25 06:37:02;;;;;;;17.35;10.43;;;;;;;;;;6367089;22;20003;-79
2021/01/25 06:39:29;;;;;;;23.60;10.77;;;;;;;;;;6338786;22;20006;-79
2021/01/25 06:42:02;;;;;;;16.08;10.60;;;;;;;;;;6338921;22;20006;-78
2021/01/25 06:44:30;;;;;;;15.43;9.20;;;;;;;;;;6366704;22;20044;-80
2021/01/25 06:46:57;;;;;;;12.98;8.57;;;;;;;;;;6338901;22;20006;-79
2021/01/25 06:49:23;;;;;;;15.77;8.65;;;;;;;;;;6338833;22;20005;-79
2021/01/25 06:51:51;;;;;;;17.00;8.43;;;;;;;;;;6338747;22;20427;-80
2021/01/25 06:54:21;;;;;;;13.27;8.38;;;;;;;;;;6366626;22;20077;-80
2021/01/25 06:56:57;;;;;;;13.43;9.25;;;;;;;;;;6366930;22;20503;-80
2021/01/25 06:59:24;;;;;;;17.98;8.65;;;;;;;;;;6366270;22;20387;-79
2021/01/25 07:01:53;;;;;;;15.67;8.63;;;;;;;;;;6338778;22;20378;-79
2021/01/25 07:04:20;;;;;;;12.60;8.63;;;;;;;;;;6366727;22;20002;-79
2021/01/25 07:06:50;;;;;;;14.43;8.57;;;;;;;;;;6338494;22;20335;-80
2021/01/25 07:09:24;;;;;;;15.02;9.20;;;;;;;;;;6338471;22;20220;-80
2021/01/25 07:11:50;;;;;;;17.38;9.35;;;;;;;;;;6366506;22;20033;-79
2021/01/25 07:14:20;;;;;;;19.98;9.90;;;;;;;;;;6338902;22;20056;-79
2021/01/25 07:16:46;;;;;;;20.92;10.10;;;;;;;;;;6337712;22;20018;-80
2021/01/25 07:19:12;;;;;;;20.05;11.38;;;;;;;;;;6339188;22;20456;-80
2021/01/25 07:21:38;;;;;;;16.38;10.27;;;;;;;;;;6339657;22;20081;-80
2021/01/25 07:24:05;;;;;;;18.73;9.73;;;;;;;;;;6341156;22;19998;-79
2021/01/25 07:26:38;;;;;;;19.30;9.37;;;;;;;;;;6338355;22;20404;-78
2021/01/25 07:29:11;;;;;;;19.92;10.65;;;;;;;;;;6366273;22;20019;-80
2021/01/25 07:31:37;;;;;;;19.27;10.10;;;;;;;;;;6338555;22;20009;-79
2021/01/25 07:34:03;;;;;;;25.55;11.65;;;;;;;;;;6366553;22;19995;-79
2021/01/25 07:36:32;;;;;;;23.45;11.07;;;;;;;;;;6338946;22;20089;-79
2021/01/25 07:38:58;;;;;;;21.58;9.80;;;;;;;;;;6339195;22;19994;-80
2021/01/25 07:41:24;;;;;;;24.33;10.18;;;;;;;;;;6338572;22;20006;-79
2021/01/25 07:43:50;;;;;;;19.77;10.30;;;;;;;;;;6366985;22;20100;-80
2021/01/25 07:46:22;;;;;;;18.02;9.77;;;;;;;;;;6339162;22;20029;-80
2021/01/25 07:48:52;;;;;;;20.73;10.52;;;;;;;;;;6338351;22;20002;-79
2021/01/25 07:51:28;;;;;;;21.80;9.73;;;;;;;;;;6337017;22;20622;-79
2021/01/25 07:53:55;;;;;;;19.13;9.48;;;;;;;;;;6339186;22;20372;-80
2021/01/25 07:56:25;;;;;;;20.52;9.23;;;;;;;;;;6366241;22;20005;-81
2021/01/25 07:59:02;;;;;;;19.70;9.88;;;;;;;;;;6343663;22;20323;-79
2021/01/25 08:01:29;;;;;;;19.73;10.45;;;;;;;;;;6339436;22;20003;-80
2021/01/25 08:04:01;;;;;;;19.77;9.75;;;;;;;;;;6338714;22;20391;-79
2021/01/25 08:06:29;;;;;;;21.20;10.13;;;;;;;;;;6338665;22;20029;-79
2021/01/25 08:08:55;;;;;;;19.05;10.20;;;;;;;;;;6337945;22;20067;-81
2021/01/25 08:11:21;;;;;;;23.45;10.48;;;;;;;;;;6338322;22;20017;-79
2021/01/25 08:13:58;;;;;;;30.63;11.52;;;;;;;;;;6338171;22;20002;-78
2021/01/25 08:16:27;;;;;;;24.20;12.68;;;;;;;;;;6337566;22;20002;-80
2021/01/25 08:19:13;;;;;;;19.98;11.43;;;;;;;;;;6338036;22;20584;-79
2021/01/25 08:21:44;;;;;;;25.23;13.35;;;;;;;;;;6366773;22;20002;-80
2021/01/25 08:24:11;;;;;;;24.50;13.98;;;;;;;;;;6338643;22;19995;-80
2021/01/25 08:26:37;;;;;;;26.13;15.20;;;;;;;;;;6366514;22;19995;-80
2021/01/25 08:29:04;;;;;;;23.10;14.45;;;;;;;;;;6339442;22;20135;-80
2021/01/25 08:31:35;;;;;;;18.67;11.68;;;;;;;;;;6366946;22;19994;-80
2021/01/25 08:34:21;;;;;;;17.15;10.50;;;;;;;;;;6366921;22;19994;-80
2021/01/25 08:36:56;;;;;;;14.43;8.30;;;;;;;;;;6312971;22;20081;-79
2021/01/25 08:39:29;;;;;;;12.95;7.90;;;;;;;;;;6339617;22;20337;-80
2021/01/25 08:41:57;;;;;;;11.77;7.63;;;;;;;;;;6367719;22;20021;-80
2021/01/25 08:44:24;;;;;;;10.52;6.53;;;;;;;;;;6340214;22;20026;-81
2021/01/25 08:46:51;;;;;;;10.07;6.45;;;;;;;;;;6340134;22;20099;-81
2021/01/25 08:49:22;;;;;;;9.07;6.18;;;;;;;;;;6341415;22;19999;-81
2021/01/25 08:51:59;;;;;;;9.05;5.63;;;;;;;;;;6343149;22;20006;-82
2021/01/25 08:54:30;;;;;;;9.38;5.70;;;;;;;;;;6371190;22;20005;-81
2021/01/25 08:56:57;;;;;;;7.18;5.05;;;;;;;;;;6371417;22;19998;-79
2021/01/25 08:59:33;;;;;;;6.88;4.90;;;;;;;;;;6340153;22;20008;-79
2021/01/25 09:02:10;;;;;;;65.00;27.83;;;;;;;;;;6378831;22;20017;-78
2021/01/25 09:04:36;;;;;;;18.92;11.18;;;;;;;;;;6340636;22;20002;-79
2021/01/25 09:07:02;;;;;;;9.65;6.03;;;;;;;;;;6342456;22;20350;-81
2021/01/25 09:09:28;;;;;;;8.68;5.93;;;;;;;;;;6340364;22;20075;-80
2021/01/25 09:11:54;;;;;;;7.97;5.80;;;;;;;;;;6339718;22;20002;-79
2021/01/25 09:14:22;;;;;;;9.18;4.85;;;;;;;;;;6370216;22;20010;-82
2021/01/25 09:16:47;;;;;;;;;;;;;;;;;;6344859;22;20006;-81
2021/01/25 09:19:15;;;;;;;6.93;4.88;;;;;;;;;;6345963;22;20339;-81
2021/01/25 09:21:41;;;;;;;8.25;5.05;;;;;;;;;;6341774;22;20006;-79
2021/01/25 09:24:07;;;;;;;8.25;5.68;;;;;;;;;;6341807;22;20010;-81
2021/01/25 09:26:33;;;;;;;9.23;5.55;;;;;;;;;;6339625;22;20006;-79
2021/01/25 09:28:59;;;;;;;10.68;5.65;;;;;;;;;;6338496;22;20405;-80
2021/01/25 09:31:26;;;;;;;7.90;5.78;;;;;;;;;;6368173;22;20001;-81
2021/01/25 09:33:53;;;;;;;7.70;5.55;;;;;;;;;;6338743;22;20002;-80
2021/01/25 09:36:19;;;;;;;8.57;5.27;;;;;;;;;;6341455;22;20088;-80
2021/01/25 09:38:45;;;;;;;8.90;5.20;;;;;;;;;;6366671;22;20028;-80
2021/01/25 09:41:11;;;;;;;9.65;6.00;;;;;;;;;;6369672;22;19998;-79
2021/01/25 09:43:37;;;;;;;12.18;8.13;;;;;;;;;;6374788;22;20423;-84
2021/01/25 09:46:03;;;;;;;9.68;5.97;;;;;;;;;;6363983;22;19990;-83
2021/01/25 09:48:29;;;;;;;9.05;5.88;;;;;;;;;;6347199;22;20078;-82
2021/01/25 09:50:55;;;;;;;9.52;5.43;;;;;;;;;;6369949;22;20445;-79
2021/01/25 09:53:21;;;;;;;10.32;5.78;;;;;;;;;;6368207;22;20082;-80
2021/01/25 09:55:50;;;;;;;11.43;5.47;;;;;;;;;;6338983;22;20010;-79
2021/01/25 09:58:16;;;;;;;10.13;5.57;;;;;;;;;;6338530;22;20010;-80
2021/01/25 10:00:42;;;;;;;8.90;6.45;;;;;;;;;;6366965;22;20006;-78
2021/01/25 10:03:08;;;;;;;8.35;5.85;;;;;;;;;;6366931;22;20002;-80
2021/01/25 10:05:34;;;;;;;9.15;6.13;;;;;;;;;;6339938;22;20002;-81
2021/01/25 10:08:00;;;;;;;10.23;5.95;;;;;;;;;;6345839;22;20003;-81
2021/01/25 10:10:27;;;;;;;9.18;5.00;;;;;;;;;;6352199;22;19987;-88
2021/01/25 10:12:54;;;;;;;10.40;5.78;;;;;;;;;;6368821;22;19999;-80
2021/01/25 10:15:20;;;;;;;10.32;5.30;;;;;;;;;;6353143;22;20074;-80
2021/01/25 10:17:46;;;;;;;10.38;5.88;;;;;;;;;;6352144;22;20033;-82
2021/01/25 10:20:12;;;;;;;11.45;5.95;;;;;;;;;;6382898;22;20002;-83
2021/01/25 10:22:39;;;;;;;10.32;5.55;;;;;;;;;;6384847;22;20007;-79
2021/01/25 10:25:07;;;;;;;9.75;5.82;;;;;;;;;;6338748;22;20006;-80
2021/01/25 10:27:33;;;;;;;;;;;;;;;;;;6340224;22;20005;-79
2021/01/25 10:29:59;;;;;;;12.75;7.30;;;;;;;;;;6367079;22;19898;-80
2021/01/25 10:32:25;;;;;;;8.45;5.07;;;;;;;;;;6338126;22;20238;-79
2021/01/25 10:34:51;;;;;;;12.82;5.85;;;;;;;;;;6338627;22;19994;-80
2021/01/25 10:37:17;;;;;;;11.95;6.63;;;;;;;;;;6338601;22;20013;-77
2021/01/25 10:39:43;;;;;;;12.55;6.30;;;;;;;;;;6367969;22;19999;-79
2021/01/25 10:42:09;;;;;;;10.75;5.20;;;;;;;;;;6341178;22;20003;-79
2021/01/25 10:44:35;;;;;;;8.82;4.47;;;;;;;;;;6343061;22;20335;-80
2021/01/25 10:47:01;;;;;;;9.70;5.35;;;;;;;;;;6341539;22;20002;-82
2021/01/25 10:49:27;;;;;;;10.80;5.07;;;;;;;;;;6368217;22;20441;-80
2021/01/25 10:51:53;;;;;;;11.32;4.45;;;;;;;;;;6338006;22;20006;-81
2021/01/25 10:54:23;;;;;;;10.30;4.43;;;;;;;;;;6335731;22;20404;-81
2021/01/25 10:56:49;;;;;;;12.43;4.85;;;;;;;;;;6336325;22;20003;-79
2021/01/25 10:59:16;;;;;;;8.37;4.87;;;;;;;;;;6335307;22;20006;-79
2021/01/25 11:01:42;;;;;;;6.88;4.13;;;;;;;;;;6336624;22;20235;-78
2021/01/25 11:04:08;;;;;;;7.60;3.78;;;;;;;;;;6336669;22;20014;-78
2021/01/25 11:06:34;;;;;;;8.40;4.05;;;;;;;;;;6335860;22;20006;-78
2021/01/25 11:09:00;;;;;;;7.32;3.60;;;;;;;;;;6337000;22;20063;-78
2021/01/25 11:11:26;;;;;;;6.90;3.72;;;;;;;;;;6336155;22;20489;-79
2021/01/25 11:13:52;;;;;;;7.43;3.42;;;;;;;;;;6336665;22;20010;-79
2021/01/25 11:16:18;;;;;;;6.47;3.35;;;;;;;;;;6336003;22;20006;-81
2021/01/25 11:18:44;;;;;;;7.05;3.35;;;;;;;;;;6339769;22;20002;-79
2021/01/25 11:21:10;;;;;;;6.22;3.63;;;;;;;;;;6340307;22;20010;-79
2021/01/25 11:23:36;;;;;;;10.77;4.35;;;;;;;;;;6339520;22;20003;-78
2021/01/25 11:26:03;;;;;;;9.60;4.53;;;;;;;;;;6365560;22;20009;-77
2021/01/25 11:28:29;;;;;;;12.80;4.68;;;;;;;;;;6338119;22;20009;-79
2021/01/25 11:30:55;;;;;;;9.40;5.10;;;;;;;;;;6366148;22;19994;-79
2021/01/25 11:33:21;;;;;;;10.18;4.78;;;;;;;;;;6368879;22;20002;-79
2021/01/25 11:35:47;;;;;;;8.93;4.80;;;;;;;;;;6340578;22;20445;-78
2021/01/25 11:38:13;;;;;;;8.57;4.78;;;;;;;;;;6367264;22;20051;-80
2021/01/25 11:40:39;;;;;;;5.72;2.80;;;;;;;;;;6339875;22;20007;-80
2021/01/25 11:43:05;;;;;;;7.90;4.05;;;;;;;;;;6337805;22;20151;-79
2021/01/25 11:45:31;;;;;;;7.13;4.00;;;;;;;;;;6366521;22;20003;-80
2021/01/25 11:47:57;;;;;;;9.85;3.55;;;;;;;;;;6368439;22;20069;-80
2021/01/25 11:50:23;;;;;;;10.43;3.10;;;;;;;;;;6338209;22;20021;-77
2021/01/25 11:52:49;;;;;;;6.03;2.80;;;;;;;;;;6362723;22;20523;-80
2021/01/25 11:55:15;;;;;;;6.03;3.38;;;;;;;;;;6338046;22;20003;-80
2021/01/25 11:57:41;;;;;;;4.20;2.33;;;;;;;;;;6338386;22;20009;-79
2021/01/25 12:00:08;;;;;;;6.35;3.80;;;;;;;;;;6338009;22;20006;-81
2021/01/25 12:02:34;;;;;;;4.97;2.80;;;;;;;;;;6338320;22;20006;-79
2021/01/25 12:05:00;;;;;;;6.03;3.08;;;;;;;;;;6336897;22;19998;-79
2021/01/25 12:07:26;;;;;;;6.43;2.58;;;;;;;;;;6337863;22;19998;-80
2021/01/25 12:09:52;;;;;;;4.15;2.40;;;;;;;;;;6366160;22;20002;-79
2021/01/25 12:12:18;;;;;;;4.70;2.55;;;;;;;;;;6364582;22;19998;-79
2021/01/25 12:14:44;;;;;;;7.53;2.00;;;;;;;;;;6363791;22;20005;-78
2021/01/25 12:17:10;;;;;;;11.85;5.60;;;;;;;;;;6363004;22;20013;-79
2021/01/25 12:19:36;;;;;;;6.70;2.50;;;;;;;;;;6340313;22;19999;-80
2021/01/25 12:22:02;;;;;;;11.88;8.00;;;;;;;;;;6342355;22;20034;-80
2021/01/25 12:24:28;;;;;;;6.45;3.50;;;;;;;;;;6339442;22;20088;-79
2021/01/25 12:26:54;;;;;;;6.68;2.45;;;;;;;;;;6367078;22;19998;-79
2021/01/25 12:29:21;;;;;;;3.53;1.40;;;;;;;;;;6366211;22;20047;-81
2021/01/25 12:31:48;;;;;;;12.10;1.23;;;;;;;;;;6337733;22;19998;-80
2021/01/25 12:34:14;;;;;;;;;;;;;;;;;;6338902;22;20051;-81
2021/01/25 12:36:40;;;;;;;2.05;1.20;;;;;;;;;;6338062;22;19989;-80
2021/01/25 12:39:06;;;;;;;3.38;1.33;;;;;;;;;;6337675;22;20006;-79
2021/01/25 12:41:33;;;;;;;2.25;0.70;;;;;;;;;;6339158;22;20022;-80
2021/01/25 12:44:01;;;;;;;15.35;1.20;;;;;;;;;;6337683;22;20101;-80
2021/01/25 12:46:27;;;;;;;11.30;1.17;;;;;;;;;;6337238;22;20006;-77
2021/01/25 12:48:53;;;;;;;1.45;0.93;;;;;;;;;;6366598;22;20006;-79
2021/01/25 12:51:19;;;;;;;3.22;1.10;;;;;;;;;;6339539;22;20090;-80
2021/01/25 12:53:45;;;;;;;5.50;1.58;;;;;;;;;;6340269;22;20002;-80
2021/01/25 12:56:11;;;;;;;3.72;1.30;;;;;;;;;;6338795;22;20006;-78
2021/01/25 12:58:37;;;;;;;2.38;1.17;;;;;;;;;;6364908;22;20025;-79
2021/01/25 13:01:03;;;;;;;4.78;1.77;;;;;;;;;;6365445;22;20002;-81
2021/01/25 13:03:30;;;;;;;9.75;2.67;;;;;;;;;;6339720;22;20423;-81
2021/01/25 13:05:56;;;;;;;3.65;2.00;;;;;;;;;;6370438;22;20002;-82
2021/01/25 13:08:22;;;;;;;1.98;0.90;;;;;;;;;;6339506;22;20082;-80
2021/01/25 13:10:48;;;;;;;3.88;1.17;;;;;;;;;;6365338;22;20020;-79
2021/01/25 13:13:14;;;;;;;5.28;1.10;;;;;;;;;;6336611;22;20025;-81
2021/01/25 13:15:42;;;;;;;3.75;0.90;;;;;;;;;;6336468;22;20002;-78
2021/01/25 13:18:08;;;;;;;2.60;1.20;;;;;;;;;;6336641;22;20717;-78
2021/01/25 13:20:35;;;;;;;4.32;1.42;;;;;;;;;;6365233;22;20765;-79
2021/01/25 13:23:01;;;;;;;4.10;1.40;;;;;;;;;;6338896;22;20085;-79
2021/01/25 13:25:27;;;;;;;7.22;1.48;;;;;;;;;;6335382;22;20034;-80
2021/01/25 13:27:53;;;;;;;2.10;0.80;;;;;;;;;;6337146;22;20839;-77
2021/01/25 13:30:20;;;;;;;1.55;0.77;;;;;;;;;;6337270;22;20068;-79
2021/01/25 13:32:46;;;;;;;6.05;3.45;;;;;;;;;;6365210;22;20059;-79
2021/01/25 13:35:15;;;;;;;2.55;1.50;;;;;;;;;;6364933;22;20006;-80
2021/01/25 13:37:41;;;;;;;1.98;0.80;;;;;;;;;;6336689;22;20007;-79
2021/01/25 13:40:08;;;;;;;2.63;1.00;;;;;;;;;;6336679;22;20457;-78
2021/01/25 13:42:37;;;;;;;1.67;0.90;;;;;;;;;;6365333;22;19998;-79
2021/01/25 13:45:06;;;;;;;1.30;0.90;;;;;;;;;;6337670;22;20472;-80
2021/01/25 13:47:32;;;;;;;1.63;0.65;;;;;;;;;;6337535;22;20043;-78
2021/01/25 13:49:58;;;;;;;1.40;0.70;;;;;;;;;;6337000;22;20014;-79
2021/01/25 13:52:24;;;;;;;1.25;0.65;;;;;;;;;;6365274;22;19998;-78
2021/01/25 13:54:50;;;;;;;1.20;0.70;;;;;;;;;;6337174;22;20006;-79
2021/01/25 13:57:16;;;;;;;2.60;0.80;;;;;;;;;;6365631;22;20002;-79
2021/01/25 13:59:42;;;;;;;1.67;0.70;;;;;;;;;;6337330;22;20055;-78
2021/01/25 14:02:08;;;;;;;2.20;1.08;;;;;;;;;;6336684;22;20002;-77
2021/01/25 14:04:34;;;;;;;2.60;1.70;;;;;;;;;;6339000;22;20041;-78
2021/01/25 14:07:00;;;;;;;2.35;1.20;;;;;;;;;;6364104;22;20065;-78
2021/01/25 14:09:26;;;;;;;5.43;2.75;;;;;;;;;;6336718;22;20635;-79
2021/01/25 14:11:52;;;;;;;12.52;6.10;;;;;;;;;;6337440;22;19999;-78
2021/01/25 14:14:20;;;;;;;6.68;3.95;;;;;;;;;;6337180;22;20018;-79
2021/01/25 14:16:46;;;;;;;2.10;1.20;;;;;;;;;;6338525;22;20067;-79
2021/01/25 14:19:13;;;;;;;5.03;1.95;;;;;;;;;;6338916;22;20002;-80
2021/01/25 14:21:39;;;;;;;6.05;3.95;;;;;;;;;;6338886;22;20029;-79
2021/01/25 14:24:05;;;;;;;11.88;7.65;;;;;;;;;;6339793;22;20002;-78
2021/01/25 14:26:31;;;;;;;1.88;1.05;;;;;;;;;;6338082;22;20006;-79
2021/01/25 14:28:57;;;;;;;5.68;3.05;;;;;;;;;;6338935;22;20009;-78
2021/01/25 14:31:23;;;;;;;5.38;3.33;;;;;;;;;;6366520;22;19995;-79
2021/01/25 14:33:52;;;;;;;15.57;8.23;;;;;;;;;;6366719;22;19998;-78